LTFJ/SAW METAR and TAF weather

Enter ICAO airport designator
Station Type Date Time Source
LTFJ METAR 2021/05/17 21:20 UTC NOAA

LTFJ 172120Z 19003KT 160V240 CAVOK 21/13 Q1008 NOSIG


Station Type Date Time Source
LTFJ Decoded METAR 2021/05/17 21:20 UTC NOAA

Istanbul / Sabiha Gokcen, Turkey (LTFJ) 40-53-55N 029-18-33E
May 17, 2021 - 05:20 PM EDT / 2021.05.17 2120 UTC
Wind: from the S (190 degrees) at 3 MPH (3 KT) (direction variable):0
Visibility: greater than 7 mile(s):0
Temperature: 69 F (21 C)
Dew Point: 55 F (13 C)
Relative Humidity: 60%
Pressure (altimeter): 29.77 in. Hg (1008 hPa)
ob: LTFJ 172120Z 19003KT 160V240 CAVOK 21/13 Q1008 NOSIG
cycle: 21

Station Type Date Time Source
LTFJ TAF 2021/05/17 18:03 UTC NOAA

TAF LTFJ 171640Z 1718/1818 VRB02KT CAVOK
BECMG 1803/1806 25014KT FEW040 BKN080
TEMPO 1813/1817 34015G25KT -TSRA FEW020CB BKN030

Example: see airport list